Marquette, MI

4:02 PM EDT on April 19, 2015 (GMT -0400)
Ford | | Change Station
CLOSE
Current Station
Airport
Location: Iron Mountain,
Elevation: 1181 ft
Nearby Weather Stations

Elev 1181 ft 45.82 °N, 88.11 °W | Updated 8 minutes ago

Overcast
Overcast
52 °F
Feels Like 52 °F
N
13
Wind Variable Wind from SE
Gusts 17 mph

Today
High -- | Low -- °F
--% Chance of Precip.
Yesterday
High -- | Low -- °F
Precip. -- in
6:55 AM 8:42 PM
New Moon, 2% visible
Pressure 29.74 in
Visibility 10.0 miles
Clouds Clear
Dew Point 29 °F
Humidity 41%
Rainfall 0.01 in
Snow Depth Not available.
UV 7 out of 12
Pollen 7.70 out of 12
Air Quality Not available.
Flu Activity Regional
METAR KIMT 191954Z AUTO 13011G15KT 10SM CLR 11/M02 A2972 RMK AO2 SLP070 T01111017 TSNO

More Conditions Fewer Conditions

Pressure 29.74 in
Visibility 10.0 miles
Clouds Clear
Dew Point 29 °F
Humidity 41%
Rainfall 0.01 in
Snow Depth Not available.
UV 7 out of 12
Pollen 7.70 out of 12
Air Quality Not available.
Flu Activity Regional
METAR KIMT 191954Z AUTO 13011G15KT 10SM CLR 11/M02 A2972 RMK AO2 SLP070 T01111017 TSNO

More Conditions Fewer Conditions

10-Day Weather Forecast

Almanac

Astronomy

Apr. 19, 2015 Rise Set
Actual Time
Civil Twilight
Nautical Twilight
Astronomical Twilight
Moon
Length of Visible Light
Length of Day
Tomorrow will be .
, % of the Moon is Illuminated

Today's Extremes

State Highs State Lows

Community

WunderPhotos

Upload Photos

1,814,956 photos uploaded!

WunderBlogs® & News

Nearby

Air Quality

  Air Quality AQ Index Pollutant
Not available.

Snow Depth

Station Depth Elevation

Earthquake Activity

City Distance Mag. Time & Date
Minimum magnitude displayed is 2.5.

Coastal Water Temperatures

Place Temperature

Stations

Nearby Weather Stations

Station Location Temp. Windchill Dew Point Humidity Wind Precip. Elev Updated Type